sensor_id;sensor_type;location;lat;lon;timestamp;temperature;humidity
61000;SHT31;46879;45.658;11.814;2023-08-06T00:02:54;25.70;64.62
61000;SHT31;46879;45.658;11.814;2023-08-06T00:07:55;25.67;64.65
61000;SHT31;46879;45.658;11.814;2023-08-06T00:12:55;25.70;64.53
61000;SHT31;46879;45.658;11.814;2023-08-06T00:17:56;25.72;64.51
61000;SHT31;46879;45.658;11.814;2023-08-06T00:22:56;25.70;64.38
61000;SHT31;46879;45.658;11.814;2023-08-06T00:27:57;25.70;64.29
61000;SHT31;46879;45.658;11.814;2023-08-06T00:32:57;25.66;64.31
61000;SHT31;46879;45.658;11.814;2023-08-06T00:37:58;25.66;64.14
61000;SHT31;46879;45.658;11.814;2023-08-06T00:42:59;25.67;64.04
61000;SHT31;46879;45.658;11.814;2023-08-06T00:48:00;25.66;64.08
61000;SHT31;46879;45.658;11.814;2023-08-06T00:53:01;25.67;64.11
61000;SHT31;46879;45.658;11.814;2023-08-06T00:58:02;25.67;64.15
61000;SHT31;46879;45.658;11.814;2023-08-06T01:03:03;25.63;64.16
61000;SHT31;46879;45.658;11.814;2023-08-06T01:08:49;25.63;64.19
61000;SHT31;46879;45.658;11.814;2023-08-06T01:14:08;25.62;64.19
61000;SHT31;46879;45.658;11.814;2023-08-06T01:19:20;25.63;64.10
61000;SHT31;46879;45.658;11.814;2023-08-06T01:24:20;25.59;64.25
61000;SHT31;46879;45.658;11.814;2023-08-06T01:29:51;25.62;64.19
61000;SHT31;46879;45.658;11.814;2023-08-06T01:34:55;25.66;64.19
61000;SHT31;46879;45.658;11.814;2023-08-06T01:39:57;25.65;64.23
61000;SHT31;46879;45.658;11.814;2023-08-06T01:44:57;25.63;64.39
61000;SHT31;46879;45.658;11.814;2023-08-06T01:49:58;25.62;64.36
61000;SHT31;46879;45.658;11.814;2023-08-06T01:54:58;25.62;64.45
61000;SHT31;46879;45.658;11.814;2023-08-06T01:59:59;25.61;64.48
61000;SHT31;46879;45.658;11.814;2023-08-06T02:04:59;25.63;64.43
61000;SHT31;46879;45.658;11.814;2023-08-06T02:10:00;25.62;64.42
61000;SHT31;46879;45.658;11.814;2023-08-06T02:15:01;25.59;64.53
61000;SHT31;46879;45.658;11.814;2023-08-06T02:20:01;25.63;64.53
61000;SHT31;46879;45.658;11.814;2023-08-06T02:25:02;25.62;64.55
61000;SHT31;46879;45.658;11.814;2023-08-06T02:30:04;25.61;64.57
61000;SHT31;46879;45.658;11.814;2023-08-06T02:35:05;25.55;64.56
61000;SHT31;46879;45.658;11.814;2023-08-06T02:40:06;25.52;64.44
61000;SHT31;46879;45.658;11.814;2023-08-06T02:45:08;25.56;64.35
61000;SHT31;46879;45.658;11.814;2023-08-06T02:50:09;25.58;64.25
61000;SHT31;46879;45.658;11.814;2023-08-06T02:55:10;25.55;64.33
61000;SHT31;46879;45.658;11.814;2023-08-06T03:00:10;25.53;64.39
61000;SHT31;46879;45.658;11.814;2023-08-06T03:05:12;25.55;64.30
61000;SHT31;46879;45.658;11.814;2023-08-06T03:10:12;25.55;64.39
61000;SHT31;46879;45.658;11.814;2023-08-06T03:15:13;25.56;64.44
61000;SHT31;46879;45.658;11.814;2023-08-06T03:20:14;25.53;64.50
61000;SHT31;46879;45.658;11.814;2023-08-06T03:25:14;25.53;64.47
61000;SHT31;46879;45.658;11.814;2023-08-06T03:30:15;25.55;64.49
61000;SHT31;46879;45.658;11.814;2023-08-06T03:35:16;25.55;64.50
61000;SHT31;46879;45.658;11.814;2023-08-06T03:40:16;25.50;64.55
61000;SHT31;46879;45.658;11.814;2023-08-06T03:45:17;25.41;64.65
61000;SHT31;46879;45.658;11.814;2023-08-06T03:50:18;25.46;64.44
61000;SHT31;46879;45.658;11.814;2023-08-06T03:55:18;25.43;64.29
61000;SHT31;46879;45.658;11.814;2023-08-06T04:00:19;25.41;64.26
61000;SHT31;46879;45.658;11.814;2023-08-06T04:05:19;25.45;64.21
61000;SHT31;46879;45.658;11.814;2023-08-06T04:10:20;25.46;64.14
61000;SHT31;46879;45.658;11.814;2023-08-06T04:15:21;25.49;64.12
61000;SHT31;46879;45.658;11.814;2023-08-06T04:20:22;25.47;64.16
61000;SHT31;46879;45.658;11.814;2023-08-06T04:25:22;25.41;64.27
61000;SHT31;46879;45.658;11.814;2023-08-06T04:30:23;25.45;64.25
61000;SHT31;46879;45.658;11.814;2023-08-06T04:35:24;25.43;64.22
61000;SHT31;46879;45.658;11.814;2023-08-06T04:40:24;25.41;64.27
61000;SHT31;46879;45.658;11.814;2023-08-06T04:45:25;25.41;64.30
61000;SHT31;46879;45.658;11.814;2023-08-06T04:50:25;25.38;64.34
61000;SHT31;46879;45.658;11.814;2023-08-06T04:55:26;25.35;64.36
61000;SHT31;46879;45.658;11.814;2023-08-06T05:00:27;25.38;64.28
61000;SHT31;46879;45.658;11.814;2023-08-06T05:05:28;25.36;64.27
61000;SHT31;46879;45.658;11.814;2023-08-06T05:10:29;25.36;64.25
61000;SHT31;46879;45.658;11.814;2023-08-06T05:15:29;25.32;64.27
61000;SHT31;46879;45.658;11.814;2023-08-06T05:20:30;25.34;64.07
61000;SHT31;46879;45.658;11.814;2023-08-06T05:25:30;25.35;64.08
61000;SHT31;46879;45.658;11.814;2023-08-06T05:30:32;25.38;64.10
61000;SHT31;46879;45.658;11.814;2023-08-06T05:35:32;25.42;64.06
61000;SHT31;46879;45.658;11.814;2023-08-06T05:40:34;25.46;64.06
61000;SHT31;46879;45.658;11.814;2023-08-06T05:45:34;25.50;64.09
61000;SHT31;46879;45.658;11.814;2023-08-06T05:50:35;25.47;64.00
61000;SHT31;46879;45.658;11.814;2023-08-06T05:55:35;25.47;64.06
61000;SHT31;46879;45.658;11.814;2023-08-06T06:00:36;25.49;64.03
61000;SHT31;46879;45.658;11.814;2023-08-06T06:05:40;25.49;64.04
61000;SHT31;46879;45.658;11.814;2023-08-06T06:10:41;25.52;64.13
61000;SHT31;46879;45.658;11.814;2023-08-06T06:15:41;25.53;64.13
61000;SHT31;46879;45.658;11.814;2023-08-06T06:20:42;25.61;64.15
61000;SHT31;46879;45.658;11.814;2023-08-06T06:25:44;25.39;64.52
61000;SHT31;46879;45.658;11.814;2023-08-06T06:30:48;25.07;65.16
61000;SHT31;46879;45.658;11.814;2023-08-06T06:35:49;24.90;65.55
61000;SHT31;46879;45.658;11.814;2023-08-06T06:40:56;25.24;64.77
61000;SHT31;46879;45.658;11.814;2023-08-06T06:46:00;25.18;64.81
61000;SHT31;46879;45.658;11.814;2023-08-06T06:51:01;25.19;64.93
61000;SHT31;46879;45.658;11.814;2023-08-06T06:56:03;25.35;64.72
61000;SHT31;46879;45.658;11.814;2023-08-06T07:01:04;25.43;64.56
61000;SHT31;46879;45.658;11.814;2023-08-06T07:06:06;25.47;64.27
61000;SHT31;46879;45.658;11.814;2023-08-06T07:11:07;25.55;64.10
61000;SHT31;46879;45.658;11.814;2023-08-06T07:16:07;25.59;64.14
61000;SHT31;46879;45.658;11.814;2023-08-06T07:21:08;25.65;64.18
61000;SHT31;46879;45.658;11.814;2023-08-06T07:26:09;25.69;64.19
61000;SHT31;46879;45.658;11.814;2023-08-06T07:31:09;25.66;64.24
61000;SHT31;46879;45.658;11.814;2023-08-06T07:36:12;25.66;64.33
61000;SHT31;46879;45.658;11.814;2023-08-06T07:41:13;25.69;64.07
61000;SHT31;46879;45.658;11.814;2023-08-06T07:46:14;25.69;64.04
61000;SHT31;46879;45.658;11.814;2023-08-06T07:51:14;25.69;63.97
61000;SHT31;46879;45.658;11.814;2023-08-06T07:56:15;25.67;63.94
61000;SHT31;46879;45.658;11.814;2023-08-06T08:01:15;25.67;63.87
61000;SHT31;46879;45.658;11.814;2023-08-06T08:06:16;25.69;63.88
61000;SHT31;46879;45.658;11.814;2023-08-06T08:11:17;25.70;63.89
61000;SHT31;46879;45.658;11.814;2023-08-06T08:16:18;25.70;63.83
61000;SHT31;46879;45.658;11.814;2023-08-06T08:21:18;25.72;63.84
61000;SHT31;46879;45.658;11.814;2023-08-06T08:26:19;25.73;63.83
61000;SHT31;46879;45.658;11.814;2023-08-06T08:31:19;25.73;63.76
61000;SHT31;46879;45.658;11.814;2023-08-06T08:36:20;25.76;63.77
61000;SHT31;46879;45.658;11.814;2023-08-06T08:41:21;25.74;63.81
61000;SHT31;46879;45.658;11.814;2023-08-06T08:46:22;25.76;63.77
61000;SHT31;46879;45.658;11.814;2023-08-06T08:51:23;25.77;63.71
61000;SHT31;46879;45.658;11.814;2023-08-06T08:56:24;25.77;63.74
61000;SHT31;46879;45.658;11.814;2023-08-06T09:01:26;25.79;63.74
61000;SHT31;46879;45.658;11.814;2023-08-06T09:06:28;25.79;63.72
61000;SHT31;46879;45.658;11.814;2023-08-06T09:11:31;25.79;63.80
61000;SHT31;46879;45.658;11.814;2023-08-06T09:16:39;25.80;63.78
61000;SHT31;46879;45.658;11.814;2023-08-06T09:21:42;25.81;63.74
61000;SHT31;46879;45.658;11.814;2023-08-06T09:26:45;25.80;63.69
61000;SHT31;46879;45.658;11.814;2023-08-06T09:31:52;25.83;63.68
61000;SHT31;46879;45.658;11.814;2023-08-06T09:36:53;25.84;63.71
61000;SHT31;46879;45.658;11.814;2023-08-06T09:41:59;25.87;63.66
61000;SHT31;46879;45.658;11.814;2023-08-06T09:47:02;25.87;63.62
61000;SHT31;46879;45.658;11.814;2023-08-06T09:52:03;25.89;63.66
61000;SHT31;46879;45.658;11.814;2023-08-06T09:57:05;25.89;63.61
61000;SHT31;46879;45.658;11.814;2023-08-06T10:02:12;25.87;63.65
61000;SHT31;46879;45.658;11.814;2023-08-06T10:07:14;25.90;63.63
61000;SHT31;46879;45.658;11.814;2023-08-06T10:12:15;25.91;63.61
61000;SHT31;46879;45.658;11.814;2023-08-06T10:17:19;25.91;63.61
61000;SHT31;46879;45.658;11.814;2023-08-06T10:22:20;25.93;63.60
61000;SHT31;46879;45.658;11.814;2023-08-06T10:27:33;25.93;63.58
61000;SHT31;46879;45.658;11.814;2023-08-06T10:32:48;25.94;63.54
61000;SHT31;46879;45.658;11.814;2023-08-06T10:37:49;25.94;63.55
61000;SHT31;46879;45.658;11.814;2023-08-06T10:42:50;25.94;63.54
61000;SHT31;46879;45.658;11.814;2023-08-06T10:47:50;25.96;63.48
61000;SHT31;46879;45.658;11.814;2023-08-06T10:52:51;25.97;63.46
61000;SHT31;46879;45.658;11.814;2023-08-06T10:57:53;25.97;63.44
61000;SHT31;46879;45.658;11.814;2023-08-06T11:02:54;25.97;63.50
61000;SHT31;46879;45.658;11.814;2023-08-06T11:07:55;25.98;63.46
61000;SHT31;46879;45.658;11.814;2023-08-06T11:13:01;25.98;63.46
61000;SHT31;46879;45.658;11.814;2023-08-06T11:18:02;25.98;63.51
61000;SHT31;46879;45.658;11.814;2023-08-06T11:23:03;25.98;63.48
61000;SHT31;46879;45.658;11.814;2023-08-06T11:28:04;25.96;63.46
61000;SHT31;46879;45.658;11.814;2023-08-06T11:33:07;26.01;63.42
61000;SHT31;46879;45.658;11.814;2023-08-06T11:38:09;26.01;63.41
61000;SHT31;46879;45.658;11.814;2023-08-06T11:43:11;26.01;63.38
61000;SHT31;46879;45.658;11.814;2023-08-06T11:48:12;26.01;63.42
61000;SHT31;46879;45.658;11.814;2023-08-06T11:53:14;26.02;63.41
61000;SHT31;46879;45.658;11.814;2023-08-06T11:58:17;26.05;63.45
61000;SHT31;46879;45.658;11.814;2023-08-06T12:03:19;26.04;63.56
61000;SHT31;46879;45.658;11.814;2023-08-06T12:08:20;26.04;63.62
61000;SHT31;46879;45.658;11.814;2023-08-06T12:13:21;26.07;63.60
61000;SHT31;46879;45.658;11.814;2023-08-06T12:18:21;26.05;63.56
61000;SHT31;46879;45.658;11.814;2023-08-06T12:23:22;26.07;63.64
61000;SHT31;46879;45.658;11.814;2023-08-06T12:28:23;26.02;63.74
61000;SHT31;46879;45.658;11.814;2023-08-06T12:33:23;26.04;63.80
61000;SHT31;46879;45.658;11.814;2023-08-06T12:38:24;26.02;63.77
61000;SHT31;46879;45.658;11.814;2023-08-06T12:43:25;26.08;63.79
61000;SHT31;46879;45.658;11.814;2023-08-06T12:48:25;26.05;63.73
61000;SHT31;46879;45.658;11.814;2023-08-06T12:53:26;26.04;63.61
61000;SHT31;46879;45.658;11.814;2023-08-06T12:58:26;26.05;63.51
61000;SHT31;46879;45.658;11.814;2023-08-06T13:03:27;26.05;63.31
61000;SHT31;46879;45.658;11.814;2023-08-06T13:08:28;26.13;63.23
61000;SHT31;46879;45.658;11.814;2023-08-06T13:13:34;26.11;63.17
61000;SHT31;46879;45.658;11.814;2023-08-06T13:18:37;26.08;63.05
61000;SHT31;46879;45.658;11.814;2023-08-06T13:23:38;26.09;63.05
61000;SHT31;46879;45.658;11.814;2023-08-06T13:28:39;26.08;63.09
61000;SHT31;46879;45.658;11.814;2023-08-06T13:33:39;26.07;63.04
61000;SHT31;46879;45.658;11.814;2023-08-06T13:38:40;26.05;63.08
61000;SHT31;46879;45.658;11.814;2023-08-06T13:43:42;26.05;63.03
61000;SHT31;46879;45.658;11.814;2023-08-06T13:48:43;26.07;63.06
61000;SHT31;46879;45.658;11.814;2023-08-06T13:53:45;26.05;63.06
61000;SHT31;46879;45.658;11.814;2023-08-06T13:58:45;26.04;63.11
61000;SHT31;46879;45.658;11.814;2023-08-06T14:03:46;26.02;63.10
61000;SHT31;46879;45.658;11.814;2023-08-06T14:08:46;26.05;63.08
61000;SHT31;46879;45.658;11.814;2023-08-06T14:13:47;26.04;63.12
61000;SHT31;46879;45.658;11.814;2023-08-06T14:18:48;26.04;63.07
61000;SHT31;46879;45.658;11.814;2023-08-06T14:23:48;26.05;63.09
61000;SHT31;46879;45.658;11.814;2023-08-06T14:28:49;26.02;63.16
61000;SHT31;46879;45.658;11.814;2023-08-06T14:33:52;26.07;63.20
61000;SHT31;46879;45.658;11.814;2023-08-06T14:38:53;26.07;63.14
61000;SHT31;46879;45.658;11.814;2023-08-06T14:43:53;26.07;63.18
61000;SHT31;46879;45.658;11.814;2023-08-06T14:48:54;26.04;63.21
61000;SHT31;46879;45.658;11.814;2023-08-06T14:53:55;26.02;63.16
61000;SHT31;46879;45.658;11.814;2023-08-06T14:58:55;26.04;63.17
61000;SHT31;46879;45.658;11.814;2023-08-06T15:03:56;26.04;63.17
61000;SHT31;46879;45.658;11.814;2023-08-06T15:08:56;26.02;63.13
61000;SHT31;46879;45.658;11.814;2023-08-06T15:14:01;26.04;63.13
61000;SHT31;46879;45.658;11.814;2023-08-06T15:19:01;26.05;63.15
61000;SHT31;46879;45.658;11.814;2023-08-06T15:24:02;26.02;63.20
61000;SHT31;46879;45.658;11.814;2023-08-06T15:29:03;26.04;63.23
61000;SHT31;46879;45.658;11.814;2023-08-06T15:34:05;26.04;63.21
61000;SHT31;46879;45.658;11.814;2023-08-06T15:39:06;26.04;63.34
61000;SHT31;46879;45.658;11.814;2023-08-06T15:44:06;26.07;63.31
61000;SHT31;46879;45.658;11.814;2023-08-06T15:49:07;26.01;63.31
61000;SHT31;46879;45.658;11.814;2023-08-06T15:54:08;26.02;63.29
61000;SHT31;46879;45.658;11.814;2023-08-06T15:59:29;26.01;63.15
61000;SHT31;46879;45.658;11.814;2023-08-06T16:04:30;26.01;63.18
61000;SHT31;46879;45.658;11.814;2023-08-06T16:09:31;26.01;63.11
61000;SHT31;46879;45.658;11.814;2023-08-06T16:14:32;25.98;63.15
61000;SHT31;46879;45.658;11.814;2023-08-06T16:19:32;25.97;63.15
61000;SHT31;46879;45.658;11.814;2023-08-06T16:24:33;25.97;63.09
61000;SHT31;46879;45.658;11.814;2023-08-06T16:29:35;25.98;63.12
61000;SHT31;46879;45.658;11.814;2023-08-06T16:34:35;25.97;63.09
61000;SHT31;46879;45.658;11.814;2023-08-06T16:39:36;25.89;60.30
61000;SHT31;46879;45.658;11.814;2023-08-06T16:44:37;25.87;59.69
61000;SHT31;46879;45.658;11.814;2023-08-06T16:49:44;25.80;58.47
61000;SHT31;46879;45.658;11.814;2023-08-06T16:54:46;25.79;57.17
61000;SHT31;46879;45.658;11.814;2023-08-06T16:59:47;25.79;57.17
61000;SHT31;46879;45.658;11.814;2023-08-06T17:04:47;25.76;57.32
61000;SHT31;46879;45.658;11.814;2023-08-06T17:09:48;25.73;56.11
61000;SHT31;46879;45.658;11.814;2023-08-06T17:14:49;25.61;54.54
61000;SHT31;46879;45.658;11.814;2023-08-06T17:19:50;25.62;54.35
61000;SHT31;46879;45.658;11.814;2023-08-06T17:24:50;25.62;53.98
61000;SHT31;46879;45.658;11.814;2023-08-06T17:29:51;25.61;54.32
61000;SHT31;46879;45.658;11.814;2023-08-06T17:34:51;25.61;54.37
61000;SHT31;46879;45.658;11.814;2023-08-06T17:39:53;25.61;53.69
61000;SHT31;46879;45.658;11.814;2023-08-06T17:44:53;25.56;53.25
61000;SHT31;46879;45.658;11.814;2023-08-06T17:49:54;25.52;53.77
61000;SHT31;46879;45.658;11.814;2023-08-06T17:54:54;25.59;53.73
61000;SHT31;46879;45.658;11.814;2023-08-06T17:59:55;25.61;55.05
61000;SHT31;46879;45.658;11.814;2023-08-06T18:04:56;25.65;55.77
61000;SHT31;46879;45.658;11.814;2023-08-06T18:09:56;25.62;55.52
61000;SHT31;46879;45.658;11.814;2023-08-06T18:14:57;25.63;56.14
61000;SHT31;46879;45.658;11.814;2023-08-06T18:19:58;25.63;56.50
61000;SHT31;46879;45.658;11.814;2023-08-06T18:24:59;25.62;56.85
61000;SHT31;46879;45.658;11.814;2023-08-06T18:30:03;25.63;57.08
61000;SHT31;46879;45.658;11.814;2023-08-06T18:35:04;25.63;57.14
61000;SHT31;46879;45.658;11.814;2023-08-06T18:40:09;25.63;57.29
61000;SHT31;46879;45.658;11.814;2023-08-06T18:45:10;25.66;57.51
61000;SHT31;46879;45.658;11.814;2023-08-06T18:50:11;25.63;57.69
61000;SHT31;46879;45.658;11.814;2023-08-06T18:55:11;25.65;57.85
61000;SHT31;46879;45.658;11.814;2023-08-06T19:00:12;25.65;58.15
61000;SHT31;46879;45.658;11.814;2023-08-06T19:05:13;25.63;58.17
61000;SHT31;46879;45.658;11.814;2023-08-06T19:10:14;25.65;58.29
61000;SHT31;46879;45.658;11.814;2023-08-06T19:15:14;25.65;58.35
61000;SHT31;46879;45.658;11.814;2023-08-06T19:20:15;25.69;58.39
61000;SHT31;46879;45.658;11.814;2023-08-06T19:25:16;25.66;58.55
61000;SHT31;46879;45.658;11.814;2023-08-06T19:30:17;25.65;58.68
61000;SHT31;46879;45.658;11.814;2023-08-06T19:35:18;25.65;58.71
61000;SHT31;46879;45.658;11.814;2023-08-06T19:40:18;25.63;58.67
61000;SHT31;46879;45.658;11.814;2023-08-06T19:45:19;25.65;58.56
61000;SHT31;46879;45.658;11.814;2023-08-06T19:50:21;25.66;58.64
61000;SHT31;46879;45.658;11.814;2023-08-06T19:55:22;25.65;58.79
61000;SHT31;46879;45.658;11.814;2023-08-06T20:00:22;25.65;58.83
61000;SHT31;46879;45.658;11.814;2023-08-06T20:05:23;25.62;58.99
61000;SHT31;46879;45.658;11.814;2023-08-06T20:10:23;25.65;59.03
61000;SHT31;46879;45.658;11.814;2023-08-06T20:15:24;25.62;59.10
61000;SHT31;46879;45.658;11.814;2023-08-06T20:20:25;25.65;59.05
61000;SHT31;46879;45.658;11.814;2023-08-06T20:25:25;25.65;59.12
61000;SHT31;46879;45.658;11.814;2023-08-06T20:30:26;25.63;59.16
61000;SHT31;46879;45.658;11.814;2023-08-06T20:35:27;25.66;59.50
61000;SHT31;46879;45.658;11.814;2023-08-06T20:40:29;25.61;59.57
61000;SHT31;46879;45.658;11.814;2023-08-06T20:45:30;25.61;59.49
61000;SHT31;46879;45.658;11.814;2023-08-06T20:50:31;25.58;59.31
61000;SHT31;46879;45.658;11.814;2023-08-06T20:55:32;25.49;58.54
61000;SHT31;46879;45.658;11.814;2023-08-06T21:00:32;25.42;58.05
61000;SHT31;46879;45.658;11.814;2023-08-06T21:05:33;25.45;57.67
61000;SHT31;46879;45.658;11.814;2023-08-06T21:10:33;25.43;57.80
61000;SHT31;46879;45.658;11.814;2023-08-06T21:15:34;25.45;58.08
61000;SHT31;46879;45.658;11.814;2023-08-06T21:20:34;25.53;58.06
61000;SHT31;46879;45.658;11.814;2023-08-06T21:25:35;25.53;58.08
61000;SHT31;46879;45.658;11.814;2023-08-06T21:30:36;25.52;58.08
61000;SHT31;46879;45.658;11.814;2023-08-06T21:35:36;25.49;58.14
61000;SHT31;46879;45.658;11.814;2023-08-06T21:40:37;25.47;58.21
61000;SHT31;46879;45.658;11.814;2023-08-06T21:45:37;25.46;58.04
61000;SHT31;46879;45.658;11.814;2023-08-06T21:50:38;25.38;58.19
61000;SHT31;46879;45.658;11.814;2023-08-06T21:55:40;25.36;58.16
61000;SHT31;46879;45.658;11.814;2023-08-06T22:00:40;25.38;57.97
61000;SHT31;46879;45.658;11.814;2023-08-06T22:05:41;25.35;57.63
61000;SHT31;46879;45.658;11.814;2023-08-06T22:10:41;25.32;58.06
61000;SHT31;46879;45.658;11.814;2023-08-06T22:15:42;25.26;57.56
61000;SHT31;46879;45.658;11.814;2023-08-06T22:20:43;25.22;57.50
61000;SHT31;46879;45.658;11.814;2023-08-06T22:25:44;25.21;57.36
61000;SHT31;46879;45.658;11.814;2023-08-06T22:30:44;25.17;57.12
61000;SHT31;46879;45.658;11.814;2023-08-06T22:35:45;25.14;57.09
61000;SHT31;46879;45.658;11.814;2023-08-06T22:40:46;25.19;57.27
61000;SHT31;46879;45.658;11.814;2023-08-06T22:45:46;25.18;57.20
61000;SHT31;46879;45.658;11.814;2023-08-06T22:50:47;25.14;57.17
61000;SHT31;46879;45.658;11.814;2023-08-06T22:55:47;25.10;57.34
61000;SHT31;46879;45.658;11.814;2023-08-06T23:00:48;25.11;57.41
61000;SHT31;46879;45.658;11.814;2023-08-06T23:05:49;25.10;57.20
61000;SHT31;46879;45.658;11.814;2023-08-06T23:10:49;25.06;57.13
61000;SHT31;46879;45.658;11.814;2023-08-06T23:15:50;25.03;57.08
61000;SHT31;46879;45.658;11.814;2023-08-06T23:20:50;25.04;57.41
61000;SHT31;46879;45.658;11.814;2023-08-06T23:25:51;24.98;57.26
61000;SHT31;46879;45.658;11.814;2023-08-06T23:30:51;25.01;57.18
61000;SHT31;46879;45.658;11.814;2023-08-06T23:35:52;25.01;57.18
61000;SHT31;46879;45.658;11.814;2023-08-06T23:40:53;24.98;56.89
61000;SHT31;46879;45.658;11.814;2023-08-06T23:45:53;24.97;56.96
61000;SHT31;46879;45.658;11.814;2023-08-06T23:50:56;24.94;56.80
61000;SHT31;46879;45.658;11.814;2023-08-06T23:55:56;24.97;56.77
